sensor_id;sensor_type;location;lat;lon;timestamp;P1;durP1;ratioP1;P2;durP2;ratioP2
5458;SDS011;2752;49.992;8.422;2023-03-12T00:02:09;25.63;;;10.40;;
5458;SDS011;2752;49.992;8.422;2023-03-12T00:04:36;19.60;;;8.60;;
5458;SDS011;2752;49.992;8.422;2023-03-12T00:07:02;17.93;;;8.73;;
5458;SDS011;2752;49.992;8.422;2023-03-12T00:09:30;23.80;;;8.67;;
5458;SDS011;2752;49.992;8.422;2023-03-12T00:12:01;22.77;;;8.77;;
5458;SDS011;2752;49.992;8.422;2023-03-12T00:14:28;18.57;;;8.27;;
5458;SDS011;2752;49.992;8.422;2023-03-12T00:16:54;18.43;;;8.63;;
5458;SDS011;2752;49.992;8.422;2023-03-12T00:19:21;14.50;;;8.53;;
5458;SDS011;2752;49.992;8.422;2023-03-12T00:21:48;15.47;;;8.47;;
5458;SDS011;2752;49.992;8.422;2023-03-12T00:24:14;18.43;;;8.30;;
5458;SDS011;2752;49.992;8.422;2023-03-12T00:26:41;19.23;;;9.07;;
5458;SDS011;2752;49.992;8.422;2023-03-12T00:29:09;16.67;;;8.13;;
5458;SDS011;2752;49.992;8.422;2023-03-12T00:31:36;17.57;;;7.93;;
5458;SDS011;2752;49.992;8.422;2023-03-12T00:34:02;16.93;;;8.43;;
5458;SDS011;2752;49.992;8.422;2023-03-12T00:36:30;23.80;;;8.63;;
5458;SDS011;2752;49.992;8.422;2023-03-12T00:38:57;18.63;;;8.13;;
5458;SDS011;2752;49.992;8.422;2023-03-12T00:41:25;22.43;;;8.73;;
5458;SDS011;2752;49.992;8.422;2023-03-12T00:43:53;17.67;;;8.53;;
5458;SDS011;2752;49.992;8.422;2023-03-12T00:46:21;20.60;;;8.37;;
5458;SDS011;2752;49.992;8.422;2023-03-12T00:48:47;22.00;;;8.87;;
5458;SDS011;2752;49.992;8.422;2023-03-12T00:51:15;17.93;;;8.10;;
5458;SDS011;2752;49.992;8.422;2023-03-12T00:53:41;25.83;;;9.23;;
5458;SDS011;2752;49.992;8.422;2023-03-12T00:56:08;17.73;;;7.40;;
5458;SDS011;2752;49.992;8.422;2023-03-12T00:58:35;18.57;;;8.40;;
5458;SDS011;2752;49.992;8.422;2023-03-12T01:01:02;15.80;;;8.00;;
5458;SDS011;2752;49.992;8.422;2023-03-12T01:03:30;18.20;;;8.20;;
5458;SDS011;2752;49.992;8.422;2023-03-12T01:05:57;15.27;;;7.40;;
5458;SDS011;2752;49.992;8.422;2023-03-12T01:08:24;12.60;;;6.80;;
5458;SDS011;2752;49.992;8.422;2023-03-12T01:10:51;12.80;;;6.80;;
5458;SDS011;2752;49.992;8.422;2023-03-12T01:13:17;17.87;;;7.23;;
5458;SDS011;2752;49.992;8.422;2023-03-12T01:15:45;17.00;;;7.17;;
5458;SDS011;2752;49.992;8.422;2023-03-12T01:18:11;14.43;;;6.30;;
5458;SDS011;2752;49.992;8.422;2023-03-12T01:20:39;12.30;;;5.90;;
5458;SDS011;2752;49.992;8.422;2023-03-12T01:23:06;13.60;;;7.10;;
5458;SDS011;2752;49.992;8.422;2023-03-12T01:25:33;12.33;;;6.53;;
5458;SDS011;2752;49.992;8.422;2023-03-12T01:28:01;18.93;;;6.83;;
5458;SDS011;2752;49.992;8.422;2023-03-12T01:30:27;13.30;;;5.90;;
5458;SDS011;2752;49.992;8.422;2023-03-12T01:32:55;11.80;;;5.90;;
5458;SDS011;2752;49.992;8.422;2023-03-12T01:35:21;16.37;;;6.30;;
5458;SDS011;2752;49.992;8.422;2023-03-12T01:37:50;17.90;;;6.97;;
5458;SDS011;2752;49.992;8.422;2023-03-12T01:40:17;21.23;;;6.53;;
5458;SDS011;2752;49.992;8.422;2023-03-12T01:42:50;19.17;;;7.40;;
5458;SDS011;2752;49.992;8.422;2023-03-12T01:48:24;14.03;;;6.10;;
5458;SDS011;2752;49.992;8.422;2023-03-12T01:50:52;17.23;;;7.20;;
5458;SDS011;2752;49.992;8.422;2023-03-12T01:53:20;21.90;;;7.20;;
5458;SDS011;2752;49.992;8.422;2023-03-12T01:55:47;19.60;;;7.90;;
5458;SDS011;2752;49.992;8.422;2023-03-12T01:58:15;15.03;;;6.17;;
5458;SDS011;2752;49.992;8.422;2023-03-12T02:00:42;16.53;;;7.00;;
5458;SDS011;2752;49.992;8.422;2023-03-12T02:03:09;12.47;;;6.83;;
5458;SDS011;2752;49.992;8.422;2023-03-12T02:05:39;16.73;;;6.77;;
5458;SDS011;2752;49.992;8.422;2023-03-12T02:08:10;11.20;;;5.67;;
5458;SDS011;2752;49.992;8.422;2023-03-12T02:10:39;9.03;;;4.70;;
5458;SDS011;2752;49.992;8.422;2023-03-12T02:13:07;22.67;;;7.37;;
5458;SDS011;2752;49.992;8.422;2023-03-12T02:15:35;13.20;;;5.00;;
5458;SDS011;2752;49.992;8.422;2023-03-12T02:18:02;10.73;;;5.10;;
5458;SDS011;2752;49.992;8.422;2023-03-12T02:20:31;19.40;;;5.33;;
5458;SDS011;2752;49.992;8.422;2023-03-12T02:23:05;11.17;;;5.17;;
5458;SDS011;2752;49.992;8.422;2023-03-12T02:25:39;10.20;;;5.70;;
5458;SDS011;2752;49.992;8.422;2023-03-12T02:28:08;9.70;;;4.87;;
5458;SDS011;2752;49.992;8.422;2023-03-12T02:30:37;8.53;;;5.03;;
5458;SDS011;2752;49.992;8.422;2023-03-12T02:33:07;9.87;;;4.77;;
5458;SDS011;2752;49.992;8.422;2023-03-12T02:35:34;11.10;;;5.73;;
5458;SDS011;2752;49.992;8.422;2023-03-12T02:38:02;10.70;;;5.70;;
5458;SDS011;2752;49.992;8.422;2023-03-12T02:40:50;15.97;;;5.20;;
5458;SDS011;2752;49.992;8.422;2023-03-12T02:43:19;9.37;;;4.93;;
5458;SDS011;2752;49.992;8.422;2023-03-12T02:45:47;9.97;;;5.13;;
5458;SDS011;2752;49.992;8.422;2023-03-12T02:48:14;9.70;;;4.70;;
5458;SDS011;2752;49.992;8.422;2023-03-12T02:50:41;9.33;;;4.40;;
5458;SDS011;2752;49.992;8.422;2023-03-12T02:53:08;13.13;;;4.80;;
5458;SDS011;2752;49.992;8.422;2023-03-12T02:55:34;13.17;;;5.40;;
5458;SDS011;2752;49.992;8.422;2023-03-12T02:58:02;17.43;;;5.10;;
5458;SDS011;2752;49.992;8.422;2023-03-12T03:00:29;8.50;;;4.67;;
5458;SDS011;2752;49.992;8.422;2023-03-12T03:02:57;8.97;;;4.60;;
5458;SDS011;2752;49.992;8.422;2023-03-12T03:05:23;14.53;;;5.20;;
5458;SDS011;2752;49.992;8.422;2023-03-12T03:07:50;7.50;;;4.70;;
5458;SDS011;2752;49.992;8.422;2023-03-12T03:10:17;8.37;;;4.40;;
5458;SDS011;2752;49.992;8.422;2023-03-12T03:12:44;9.87;;;4.30;;
5458;SDS011;2752;49.992;8.422;2023-03-12T03:15:12;7.17;;;5.07;;
5458;SDS011;2752;49.992;8.422;2023-03-12T03:17:38;11.17;;;4.67;;
5458;SDS011;2752;49.992;8.422;2023-03-12T03:20:05;17.63;;;5.20;;
5458;SDS011;2752;49.992;8.422;2023-03-12T03:22:35;8.40;;;4.40;;
5458;SDS011;2752;49.992;8.422;2023-03-12T03:25:02;9.73;;;5.00;;
5458;SDS011;2752;49.992;8.422;2023-03-12T03:27:30;8.03;;;4.20;;
5458;SDS011;2752;49.992;8.422;2023-03-12T03:29:57;10.47;;;5.37;;
5458;SDS011;2752;49.992;8.422;2023-03-12T03:32:25;12.30;;;4.73;;
5458;SDS011;2752;49.992;8.422;2023-03-12T03:34:52;11.57;;;5.10;;
5458;SDS011;2752;49.992;8.422;2023-03-12T03:37:19;10.60;;;4.73;;
5458;SDS011;2752;49.992;8.422;2023-03-12T03:39:45;11.00;;;4.50;;
5458;SDS011;2752;49.992;8.422;2023-03-12T03:42:12;6.80;;;4.23;;
5458;SDS011;2752;49.992;8.422;2023-03-12T03:44:39;14.53;;;4.97;;
5458;SDS011;2752;49.992;8.422;2023-03-12T03:47:06;6.27;;;3.80;;
5458;SDS011;2752;49.992;8.422;2023-03-12T03:49:34;10.00;;;4.97;;
5458;SDS011;2752;49.992;8.422;2023-03-12T03:52:00;9.83;;;4.90;;
5458;SDS011;2752;49.992;8.422;2023-03-12T03:54:27;8.80;;;4.60;;
5458;SDS011;2752;49.992;8.422;2023-03-12T03:56:55;12.47;;;5.57;;
5458;SDS011;2752;49.992;8.422;2023-03-12T03:59:21;7.90;;;4.00;;
5458;SDS011;2752;49.992;8.422;2023-03-12T04:01:48;11.33;;;4.23;;
5458;SDS011;2752;49.992;8.422;2023-03-12T04:04:16;8.33;;;4.40;;
5458;SDS011;2752;49.992;8.422;2023-03-12T04:06:44;7.27;;;4.10;;
5458;SDS011;2752;49.992;8.422;2023-03-12T04:09:11;7.83;;;4.67;;
5458;SDS011;2752;49.992;8.422;2023-03-12T04:11:38;9.30;;;5.00;;
5458;SDS011;2752;49.992;8.422;2023-03-12T04:14:05;9.60;;;5.13;;
5458;SDS011;2752;49.992;8.422;2023-03-12T04:16:32;14.20;;;4.70;;
5458;SDS011;2752;49.992;8.422;2023-03-12T04:18:59;10.90;;;5.17;;
5458;SDS011;2752;49.992;8.422;2023-03-12T04:21:25;10.87;;;5.20;;
5458;SDS011;2752;49.992;8.422;2023-03-12T04:23:53;12.23;;;4.83;;
5458;SDS011;2752;49.992;8.422;2023-03-12T04:26:20;12.57;;;4.70;;
5458;SDS011;2752;49.992;8.422;2023-03-12T04:28:47;9.50;;;4.40;;
5458;SDS011;2752;49.992;8.422;2023-03-12T04:31:14;7.00;;;4.33;;
5458;SDS011;2752;49.992;8.422;2023-03-12T04:33:41;7.00;;;5.00;;
5458;SDS011;2752;49.992;8.422;2023-03-12T04:36:08;7.30;;;4.23;;
5458;SDS011;2752;49.992;8.422;2023-03-12T04:38:35;12.70;;;5.47;;
5458;SDS011;2752;49.992;8.422;2023-03-12T04:41:04;9.60;;;4.10;;
5458;SDS011;2752;49.992;8.422;2023-03-12T04:43:33;14.20;;;5.43;;
5458;SDS011;2752;49.992;8.422;2023-03-12T04:46:00;15.20;;;6.27;;
5458;SDS011;2752;49.992;8.422;2023-03-12T04:48:28;8.50;;;5.47;;
5458;SDS011;2752;49.992;8.422;2023-03-12T04:50:55;16.33;;;5.90;;
5458;SDS011;2752;49.992;8.422;2023-03-12T04:53:22;10.00;;;5.83;;
5458;SDS011;2752;49.992;8.422;2023-03-12T04:55:49;7.83;;;5.00;;
5458;SDS011;2752;49.992;8.422;2023-03-12T04:58:18;13.93;;;5.23;;
5458;SDS011;2752;49.992;8.422;2023-03-12T05:00:46;10.67;;;4.87;;
5458;SDS011;2752;49.992;8.422;2023-03-12T05:03:14;10.50;;;5.43;;
5458;SDS011;2752;49.992;8.422;2023-03-12T05:05:41;10.33;;;5.13;;
5458;SDS011;2752;49.992;8.422;2023-03-12T05:08:07;6.90;;;4.37;;
5458;SDS011;2752;49.992;8.422;2023-03-12T05:10:34;6.73;;;4.33;;
5458;SDS011;2752;49.992;8.422;2023-03-12T05:13:01;8.53;;;5.03;;
5458;SDS011;2752;49.992;8.422;2023-03-12T05:15:30;10.10;;;4.90;;
5458;SDS011;2752;49.992;8.422;2023-03-12T05:17:56;8.97;;;4.53;;
5458;SDS011;2752;49.992;8.422;2023-03-12T05:20:23;17.20;;;4.83;;
5458;SDS011;2752;49.992;8.422;2023-03-12T05:22:50;8.10;;;4.00;;
5458;SDS011;2752;49.992;8.422;2023-03-12T05:25:17;5.33;;;3.87;;
5458;SDS011;2752;49.992;8.422;2023-03-12T05:27:44;10.57;;;5.03;;
5458;SDS011;2752;49.992;8.422;2023-03-12T05:30:11;8.87;;;4.67;;
5458;SDS011;2752;49.992;8.422;2023-03-12T05:32:39;9.60;;;4.63;;
5458;SDS011;2752;49.992;8.422;2023-03-12T05:35:06;10.03;;;5.23;;
5458;SDS011;2752;49.992;8.422;2023-03-12T05:37:34;7.43;;;4.53;;
5458;SDS011;2752;49.992;8.422;2023-03-12T05:40:01;6.40;;;3.93;;
5458;SDS011;2752;49.992;8.422;2023-03-12T05:42:28;12.73;;;4.50;;
5458;SDS011;2752;49.992;8.422;2023-03-12T05:44:55;8.10;;;4.37;;
5458;SDS011;2752;49.992;8.422;2023-03-12T05:47:23;7.57;;;4.37;;
5458;SDS011;2752;49.992;8.422;2023-03-12T05:49:51;10.10;;;5.10;;
5458;SDS011;2752;49.992;8.422;2023-03-12T05:52:18;11.97;;;3.73;;
5458;SDS011;2752;49.992;8.422;2023-03-12T05:54:45;8.83;;;4.63;;
5458;SDS011;2752;49.992;8.422;2023-03-12T05:57:12;10.80;;;4.93;;
5458;SDS011;2752;49.992;8.422;2023-03-12T05:59:39;14.70;;;4.23;;
5458;SDS011;2752;49.992;8.422;2023-03-12T06:02:06;6.80;;;3.70;;
5458;SDS011;2752;49.992;8.422;2023-03-12T06:04:32;12.27;;;4.40;;
5458;SDS011;2752;49.992;8.422;2023-03-12T06:07:00;12.43;;;4.30;;
5458;SDS011;2752;49.992;8.422;2023-03-12T06:09:27;10.17;;;4.67;;
5458;SDS011;2752;49.992;8.422;2023-03-12T06:11:54;8.53;;;4.80;;
5458;SDS011;2752;49.992;8.422;2023-03-12T06:14:21;11.13;;;4.20;;
5458;SDS011;2752;49.992;8.422;2023-03-12T06:16:47;10.57;;;4.40;;
5458;SDS011;2752;49.992;8.422;2023-03-12T06:19:14;14.73;;;4.60;;
5458;SDS011;2752;49.992;8.422;2023-03-12T06:21:41;6.03;;;3.77;;
5458;SDS011;2752;49.992;8.422;2023-03-12T06:24:09;12.30;;;4.23;;
5458;SDS011;2752;49.992;8.422;2023-03-12T06:26:36;14.50;;;3.97;;
5458;SDS011;2752;49.992;8.422;2023-03-12T06:29:04;10.60;;;5.53;;
5458;SDS011;2752;49.992;8.422;2023-03-12T06:31:31;14.07;;;4.20;;
5458;SDS011;2752;49.992;8.422;2023-03-12T06:33:58;6.90;;;3.90;;
5458;SDS011;2752;49.992;8.422;2023-03-12T06:36:24;10.47;;;4.10;;
5458;SDS011;2752;49.992;8.422;2023-03-12T06:38:51;9.03;;;3.73;;
5458;SDS011;2752;49.992;8.422;2023-03-12T06:41:19;12.20;;;4.60;;
5458;SDS011;2752;49.992;8.422;2023-03-12T06:43:46;8.17;;;4.30;;
5458;SDS011;2752;49.992;8.422;2023-03-12T06:46:14;17.93;;;4.87;;
5458;SDS011;2752;49.992;8.422;2023-03-12T06:48:42;7.83;;;4.80;;
5458;SDS011;2752;49.992;8.422;2023-03-12T06:51:11;10.23;;;5.20;;
5458;SDS011;2752;49.992;8.422;2023-03-12T06:53:39;10.47;;;5.43;;
5458;SDS011;2752;49.992;8.422;2023-03-12T06:56:06;15.80;;;4.77;;
5458;SDS011;2752;49.992;8.422;2023-03-12T06:58:34;9.27;;;4.63;;
5458;SDS011;2752;49.992;8.422;2023-03-12T07:01:01;15.03;;;4.90;;
5458;SDS011;2752;49.992;8.422;2023-03-12T07:03:28;11.37;;;5.43;;
5458;SDS011;2752;49.992;8.422;2023-03-12T07:05:55;14.23;;;5.30;;
5458;SDS011;2752;49.992;8.422;2023-03-12T07:08:23;13.37;;;5.00;;
5458;SDS011;2752;49.992;8.422;2023-03-12T07:10:50;12.20;;;5.00;;
5458;SDS011;2752;49.992;8.422;2023-03-12T07:13:17;7.53;;;4.73;;
5458;SDS011;2752;49.992;8.422;2023-03-12T07:15:45;13.53;;;5.20;;
5458;SDS011;2752;49.992;8.422;2023-03-12T07:18:12;10.90;;;4.93;;
5458;SDS011;2752;49.992;8.422;2023-03-12T07:20:40;11.13;;;6.23;;
5458;SDS011;2752;49.992;8.422;2023-03-12T07:23:08;10.80;;;5.77;;
5458;SDS011;2752;49.992;8.422;2023-03-12T07:25:36;9.13;;;5.30;;
5458;SDS011;2752;49.992;8.422;2023-03-12T07:28:04;7.50;;;4.70;;
5458;SDS011;2752;49.992;8.422;2023-03-12T07:30:31;6.10;;;4.80;;
5458;SDS011;2752;49.992;8.422;2023-03-12T07:33:00;9.87;;;5.40;;
5458;SDS011;2752;49.992;8.422;2023-03-12T07:35:27;17.53;;;6.30;;
5458;SDS011;2752;49.992;8.422;2023-03-12T07:37:54;12.27;;;6.43;;
5458;SDS011;2752;49.992;8.422;2023-03-12T07:40:20;10.80;;;5.80;;
5458;SDS011;2752;49.992;8.422;2023-03-12T07:42:48;12.70;;;6.80;;
5458;SDS011;2752;49.992;8.422;2023-03-12T07:45:16;19.70;;;10.33;;
5458;SDS011;2752;49.992;8.422;2023-03-12T07:47:43;20.77;;;5.87;;
5458;SDS011;2752;49.992;8.422;2023-03-12T07:50:11;13.87;;;6.20;;
5458;SDS011;2752;49.992;8.422;2023-03-12T07:52:38;20.30;;;6.47;;
5458;SDS011;2752;49.992;8.422;2023-03-12T07:55:06;11.20;;;5.87;;
5458;SDS011;2752;49.992;8.422;2023-03-12T07:57:34;10.90;;;5.60;;
5458;SDS011;2752;49.992;8.422;2023-03-12T08:00:01;15.13;;;6.40;;
5458;SDS011;2752;49.992;8.422;2023-03-12T08:02:31;11.10;;;5.70;;
5458;SDS011;2752;49.992;8.422;2023-03-12T08:04:58;11.43;;;5.80;;
5458;SDS011;2752;49.992;8.422;2023-03-12T08:07:26;11.33;;;6.40;;
5458;SDS011;2752;49.992;8.422;2023-03-12T08:09:56;10.07;;;6.20;;
5458;SDS011;2752;49.992;8.422;2023-03-12T08:12:22;13.00;;;5.70;;
5458;SDS011;2752;49.992;8.422;2023-03-12T08:14:49;9.77;;;5.60;;
5458;SDS011;2752;49.992;8.422;2023-03-12T08:17:16;10.33;;;5.27;;
5458;SDS011;2752;49.992;8.422;2023-03-12T08:19:42;14.50;;;6.80;;
5458;SDS011;2752;49.992;8.422;2023-03-12T08:22:09;16.63;;;7.83;;
5458;SDS011;2752;49.992;8.422;2023-03-12T08:24:37;7.73;;;6.10;;
5458;SDS011;2752;49.992;8.422;2023-03-12T08:27:04;14.93;;;6.77;;
5458;SDS011;2752;49.992;8.422;2023-03-12T08:29:31;10.77;;;6.30;;
5458;SDS011;2752;49.992;8.422;2023-03-12T08:31:58;14.80;;;7.93;;
5458;SDS011;2752;49.992;8.422;2023-03-12T08:34:25;17.03;;;7.30;;
5458;SDS011;2752;49.992;8.422;2023-03-12T08:36:52;10.97;;;6.60;;
5458;SDS011;2752;49.992;8.422;2023-03-12T08:39:18;12.97;;;7.27;;
5458;SDS011;2752;49.992;8.422;2023-03-12T08:41:46;17.77;;;8.20;;
5458;SDS011;2752;49.992;8.422;2023-03-12T08:44:13;13.37;;;7.80;;
5458;SDS011;2752;49.992;8.422;2023-03-12T08:46:40;19.77;;;9.40;;
5458;SDS011;2752;49.992;8.422;2023-03-12T08:49:07;18.70;;;9.33;;
5458;SDS011;2752;49.992;8.422;2023-03-12T08:51:34;22.53;;;9.70;;
5458;SDS011;2752;49.992;8.422;2023-03-12T08:54:00;20.17;;;10.10;;
5458;SDS011;2752;49.992;8.422;2023-03-12T08:56:27;13.90;;;8.63;;
5458;SDS011;2752;49.992;8.422;2023-03-12T08:58:56;21.30;;;10.07;;
5458;SDS011;2752;49.992;8.422;2023-03-12T09:01:23;17.50;;;9.47;;
5458;SDS011;2752;49.992;8.422;2023-03-12T09:03:49;22.63;;;11.60;;
5458;SDS011;2752;49.992;8.422;2023-03-12T09:06:19;23.40;;;10.20;;
5458;SDS011;2752;49.992;8.422;2023-03-12T09:08:47;15.70;;;9.20;;
5458;SDS011;2752;49.992;8.422;2023-03-12T09:11:15;22.83;;;9.70;;
5458;SDS011;2752;49.992;8.422;2023-03-12T09:13:42;17.50;;;9.70;;
5458;SDS011;2752;49.992;8.422;2023-03-12T09:16:11;26.13;;;12.77;;
5458;SDS011;2752;49.992;8.422;2023-03-12T09:18:37;30.33;;;11.70;;
5458;SDS011;2752;49.992;8.422;2023-03-12T09:21:04;28.60;;;14.13;;
5458;SDS011;2752;49.992;8.422;2023-03-12T09:23:31;24.57;;;12.20;;
5458;SDS011;2752;49.992;8.422;2023-03-12T09:25:58;25.90;;;11.13;;
5458;SDS011;2752;49.992;8.422;2023-03-12T09:28:24;34.40;;;12.10;;
5458;SDS011;2752;49.992;8.422;2023-03-12T09:30:51;29.63;;;13.33;;
5458;SDS011;2752;49.992;8.422;2023-03-12T09:33:19;25.80;;;12.07;;
5458;SDS011;2752;49.992;8.422;2023-03-12T09:35:54;22.60;;;11.13;;
5458;SDS011;2752;49.992;8.422;2023-03-12T09:38:21;28.13;;;12.00;;
5458;SDS011;2752;49.992;8.422;2023-03-12T09:40:47;22.03;;;11.80;;
5458;SDS011;2752;49.992;8.422;2023-03-12T09:43:17;22.67;;;12.70;;
5458;SDS011;2752;49.992;8.422;2023-03-12T09:45:50;22.80;;;12.87;;
5458;SDS011;2752;49.992;8.422;2023-03-12T09:48:21;23.87;;;12.00;;
5458;SDS011;2752;49.992;8.422;2023-03-12T09:50:53;19.53;;;10.77;;
5458;SDS011;2752;49.992;8.422;2023-03-12T09:53:23;23.67;;;11.90;;
5458;SDS011;2752;49.992;8.422;2023-03-12T09:55:54;34.73;;;10.80;;
5458;SDS011;2752;49.992;8.422;2023-03-12T09:58:24;17.73;;;9.10;;
5458;SDS011;2752;49.992;8.422;2023-03-12T10:00:54;20.20;;;9.80;;
5458;SDS011;2752;49.992;8.422;2023-03-12T10:03:31;16.27;;;9.07;;
5458;SDS011;2752;49.992;8.422;2023-03-12T10:06:11;18.33;;;9.33;;
5458;SDS011;2752;49.992;8.422;2023-03-12T10:08:44;14.27;;;8.17;;
5458;SDS011;2752;49.992;8.422;2023-03-12T10:11:22;14.80;;;9.70;;
5458;SDS011;2752;49.992;8.422;2023-03-12T10:14:00;17.40;;;10.70;;
5458;SDS011;2752;49.992;8.422;2023-03-12T10:16:42;19.60;;;11.30;;
5458;SDS011;2752;49.992;8.422;2023-03-12T10:19:28;22.97;;;9.73;;
5458;SDS011;2752;49.992;8.422;2023-03-12T10:22:04;20.83;;;10.77;;
5458;SDS011;2752;49.992;8.422;2023-03-12T10:24:41;25.80;;;11.13;;
5458;SDS011;2752;49.992;8.422;2023-03-12T10:27:19;23.77;;;10.37;;
5458;SDS011;2752;49.992;8.422;2023-03-12T10:29:50;17.97;;;11.07;;
5458;SDS011;2752;49.992;8.422;2023-03-12T10:32:20;24.73;;;11.00;;
5458;SDS011;2752;49.992;8.422;2023-03-12T10:34:52;16.40;;;10.30;;
5458;SDS011;2752;49.992;8.422;2023-03-12T10:37:22;27.30;;;10.53;;
5458;SDS011;2752;49.992;8.422;2023-03-12T10:39:52;28.03;;;10.83;;
5458;SDS011;2752;49.992;8.422;2023-03-12T10:42:21;23.20;;;10.80;;
5458;SDS011;2752;49.992;8.422;2023-03-12T10:44:50;22.80;;;10.50;;
5458;SDS011;2752;49.992;8.422;2023-03-12T10:47:27;27.00;;;12.43;;
5458;SDS011;2752;49.992;8.422;2023-03-12T10:50:12;23.10;;;10.47;;
5458;SDS011;2752;49.992;8.422;2023-03-12T10:52:40;22.03;;;11.17;;
5458;SDS011;2752;49.992;8.422;2023-03-12T10:55:12;20.67;;;11.23;;
5458;SDS011;2752;49.992;8.422;2023-03-12T10:57:46;23.67;;;10.90;;
5458;SDS011;2752;49.992;8.422;2023-03-12T11:00:17;27.20;;;11.30;;
5458;SDS011;2752;49.992;8.422;2023-03-12T11:02:45;20.40;;;11.10;;
5458;SDS011;2752;49.992;8.422;2023-03-12T11:05:21;20.03;;;11.50;;
5458;SDS011;2752;49.992;8.422;2023-03-12T11:07:49;21.77;;;12.50;;
5458;SDS011;2752;49.992;8.422;2023-03-12T11:10:18;28.30;;;11.80;;
5458;SDS011;2752;49.992;8.422;2023-03-12T11:12:55;19.70;;;10.30;;
5458;SDS011;2752;49.992;8.422;2023-03-12T11:15:24;20.97;;;11.57;;
5458;SDS011;2752;49.992;8.422;2023-03-12T11:18:00;23.77;;;11.70;;
5458;SDS011;2752;49.992;8.422;2023-03-12T11:20:46;20.87;;;12.30;;
5458;SDS011;2752;49.992;8.422;2023-03-12T11:23:14;26.07;;;12.10;;
5458;SDS011;2752;49.992;8.422;2023-03-12T11:25:42;25.63;;;12.70;;
5458;SDS011;2752;49.992;8.422;2023-03-12T11:28:17;23.87;;;11.20;;
5458;SDS011;2752;49.992;8.422;2023-03-12T11:30:48;27.97;;;13.30;;
5458;SDS011;2752;49.992;8.422;2023-03-12T11:33:16;24.17;;;10.97;;
5458;SDS011;2752;49.992;8.422;2023-03-12T11:35:44;20.00;;;11.60;;
5458;SDS011;2752;49.992;8.422;2023-03-12T11:38:20;22.73;;;12.23;;
5458;SDS011;2752;49.992;8.422;2023-03-12T11:40:57;17.87;;;10.60;;
5458;SDS011;2752;49.992;8.422;2023-03-12T11:43:35;19.87;;;11.30;;
5458;SDS011;2752;49.992;8.422;2023-03-12T11:46:13;31.57;;;12.63;;
5458;SDS011;2752;49.992;8.422;2023-03-12T11:48:53;30.80;;;13.90;;
5458;SDS011;2752;49.992;8.422;2023-03-12T11:51:31;25.30;;;12.93;;
5458;SDS011;2752;49.992;8.422;2023-03-12T11:54:15;29.30;;;13.97;;
5458;SDS011;2752;49.992;8.422;2023-03-12T11:57:13;25.57;;;13.70;;
5458;SDS011;2752;49.992;8.422;2023-03-12T11:59:52;23.70;;;12.63;;
5458;SDS011;2752;49.992;8.422;2023-03-12T12:02:41;21.50;;;12.17;;
5458;SDS011;2752;49.992;8.422;2023-03-12T12:05:30;30.67;;;13.90;;
5458;SDS011;2752;49.992;8.422;2023-03-12T12:08:10;25.13;;;13.53;;
5458;SDS011;2752;49.992;8.422;2023-03-12T12:10:53;23.50;;;12.77;;
5458;SDS011;2752;49.992;8.422;2023-03-12T12:13:27;23.17;;;13.43;;
5458;SDS011;2752;49.992;8.422;2023-03-12T12:16:07;28.10;;;14.70;;
5458;SDS011;2752;49.992;8.422;2023-03-12T12:18:49;24.57;;;14.17;;
5458;SDS011;2752;49.992;8.422;2023-03-12T12:21:31;26.73;;;14.10;;
5458;SDS011;2752;49.992;8.422;2023-03-12T12:24:12;18.83;;;12.53;;
5458;SDS011;2752;49.992;8.422;2023-03-12T12:26:48;24.27;;;13.97;;
5458;SDS011;2752;49.992;8.422;2023-03-12T12:29:24;23.50;;;13.00;;
5458;SDS011;2752;49.992;8.422;2023-03-12T12:32:00;23.13;;;13.67;;
5458;SDS011;2752;49.992;8.422;2023-03-12T12:34:51;26.00;;;14.50;;
5458;SDS011;2752;49.992;8.422;2023-03-12T12:37:35;26.67;;;14.40;;
5458;SDS011;2752;49.992;8.422;2023-03-12T12:40:11;26.73;;;14.23;;
5458;SDS011;2752;49.992;8.422;2023-03-12T12:42:47;25.30;;;14.50;;
5458;SDS011;2752;49.992;8.422;2023-03-12T12:45:19;29.47;;;13.10;;
5458;SDS011;2752;49.992;8.422;2023-03-12T12:47:48;21.50;;;11.77;;
5458;SDS011;2752;49.992;8.422;2023-03-12T12:50:20;24.17;;;13.33;;
5458;SDS011;2752;49.992;8.422;2023-03-12T12:52:51;24.57;;;13.57;;
5458;SDS011;2752;49.992;8.422;2023-03-12T12:55:24;27.42;;;14.57;;
5458;SDS011;2752;49.992;8.422;2023-03-12T12:57:56;21.43;;;13.60;;
5458;SDS011;2752;49.992;8.422;2023-03-12T13:00:36;25.77;;;14.43;;
5458;SDS011;2752;49.992;8.422;2023-03-12T13:03:12;30.03;;;13.60;;
5458;SDS011;2752;49.992;8.422;2023-03-12T13:05:45;23.80;;;12.93;;
5458;SDS011;2752;49.992;8.422;2023-03-12T13:08:35;23.60;;;12.77;;
5458;SDS011;2752;49.992;8.422;2023-03-12T13:11:28;28.00;;;14.07;;
5458;SDS011;2752;49.992;8.422;2023-03-12T13:14:14;28.63;;;13.20;;
5458;SDS011;2752;49.992;8.422;2023-03-12T13:16:46;27.77;;;13.37;;
5458;SDS011;2752;49.992;8.422;2023-03-12T13:19:24;22.97;;;13.27;;
5458;SDS011;2752;49.992;8.422;2023-03-12T13:21:58;23.10;;;13.53;;
5458;SDS011;2752;49.992;8.422;2023-03-12T13:24:34;24.80;;;13.63;;
5458;SDS011;2752;49.992;8.422;2023-03-12T13:27:10;20.70;;;12.63;;
5458;SDS011;2752;49.992;8.422;2023-03-12T13:29:43;26.73;;;12.07;;
5458;SDS011;2752;49.992;8.422;2023-03-12T13:35:05;29.00;;;13.07;;
5458;SDS011;2752;49.992;8.422;2023-03-12T13:37:58;25.10;;;13.03;;
5458;SDS011;2752;49.992;8.422;2023-03-12T13:40:38;24.23;;;11.97;;
5458;SDS011;2752;49.992;8.422;2023-03-12T13:43:32;16.43;;;11.47;;
5458;SDS011;2752;49.992;8.422;2023-03-12T13:46:26;21.30;;;11.33;;
5458;SDS011;2752;49.992;8.422;2023-03-12T13:48:58;25.13;;;12.30;;
5458;SDS011;2752;49.992;8.422;2023-03-12T13:51:30;17.70;;;10.63;;
5458;SDS011;2752;49.992;8.422;2023-03-12T13:53:57;21.87;;;11.80;;
5458;SDS011;2752;49.992;8.422;2023-03-12T13:56:27;19.37;;;10.60;;
5458;SDS011;2752;49.992;8.422;2023-03-12T13:58:58;22.93;;;12.67;;
5458;SDS011;2752;49.992;8.422;2023-03-12T14:01:27;22.43;;;13.60;;
5458;SDS011;2752;49.992;8.422;2023-03-12T14:03:56;17.33;;;12.03;;
5458;SDS011;2752;49.992;8.422;2023-03-12T14:06:26;25.63;;;12.53;;
5458;SDS011;2752;49.992;8.422;2023-03-12T14:08:56;20.40;;;12.73;;
5458;SDS011;2752;49.992;8.422;2023-03-12T14:11:45;31.50;;;11.70;;
5458;SDS011;2752;49.992;8.422;2023-03-12T14:17:18;15.53;;;11.00;;
5458;SDS011;2752;49.992;8.422;2023-03-12T14:19:50;18.40;;;11.70;;
5458;SDS011;2752;49.992;8.422;2023-03-12T14:22:22;22.97;;;12.50;;
5458;SDS011;2752;49.992;8.422;2023-03-12T14:24:52;20.37;;;12.40;;
5458;SDS011;2752;49.992;8.422;2023-03-12T14:27:23;19.13;;;11.63;;
5458;SDS011;2752;49.992;8.422;2023-03-12T14:29:55;20.67;;;12.97;;
5458;SDS011;2752;49.992;8.422;2023-03-12T14:32:25;20.27;;;11.93;;
5458;SDS011;2752;49.992;8.422;2023-03-12T14:34:54;22.70;;;11.93;;
5458;SDS011;2752;49.992;8.422;2023-03-12T14:37:27;26.07;;;12.53;;
5458;SDS011;2752;49.992;8.422;2023-03-12T14:39:57;20.73;;;13.37;;
5458;SDS011;2752;49.992;8.422;2023-03-12T14:42:28;20.20;;;13.00;;
5458;SDS011;2752;49.992;8.422;2023-03-12T14:44:59;22.43;;;11.83;;
5458;SDS011;2752;49.992;8.422;2023-03-12T14:47:27;21.27;;;11.77;;
5458;SDS011;2752;49.992;8.422;2023-03-12T14:49:55;20.87;;;11.43;;
5458;SDS011;2752;49.992;8.422;2023-03-12T14:52:23;25.83;;;12.43;;
5458;SDS011;2752;49.992;8.422;2023-03-12T14:54:52;18.53;;;11.07;;
5458;SDS011;2752;49.992;8.422;2023-03-12T14:57:20;23.63;;;12.90;;
5458;SDS011;2752;49.992;8.422;2023-03-12T14:59:50;23.70;;;12.73;;
5458;SDS011;2752;49.992;8.422;2023-03-12T15:02:19;17.40;;;11.90;;
5458;SDS011;2752;49.992;8.422;2023-03-12T15:04:46;20.97;;;11.13;;
5458;SDS011;2752;49.992;8.422;2023-03-12T15:07:16;20.70;;;11.73;;
5458;SDS011;2752;49.992;8.422;2023-03-12T15:09:47;20.60;;;12.17;;
5458;SDS011;2752;49.992;8.422;2023-03-12T15:12:18;21.73;;;12.23;;
5458;SDS011;2752;49.992;8.422;2023-03-12T15:14:47;21.20;;;12.97;;
5458;SDS011;2752;49.992;8.422;2023-03-12T15:17:17;21.27;;;12.10;;
5458;SDS011;2752;49.992;8.422;2023-03-12T15:19:46;17.93;;;11.03;;
5458;SDS011;2752;49.992;8.422;2023-03-12T15:22:14;20.73;;;12.50;;
5458;SDS011;2752;49.992;8.422;2023-03-12T15:24:44;26.77;;;12.50;;